createdAt,value
2023-03-25T00:00:19.360Z,7.79
2023-03-25T00:02:51.210Z,8.05
2023-03-25T00:05:20.411Z,8.12
2023-03-25T00:07:51.186Z,8.12
2023-03-25T00:10:18.621Z,8.02
2023-03-25T00:12:45.476Z,8.20
2023-03-25T00:15:13.696Z,8.20
2023-03-25T00:17:40.861Z,8.05
2023-03-25T00:20:10.195Z,7.95
2023-03-25T00:22:44.795Z,8.02
2023-03-25T00:25:17.834Z,8.29
2023-03-25T00:27:47.029Z,8.00
2023-03-25T00:30:15.859Z,8.28
2023-03-25T00:32:46.462Z,8.00
2023-03-25T00:35:14.125Z,8.05
2023-03-25T00:37:41.372Z,8.14
2023-03-25T00:40:09.065Z,8.29
2023-03-25T00:42:35.911Z,8.38
2023-03-25T00:45:02.895Z,8.45
2023-03-25T00:47:29.791Z,8.42
2023-03-25T00:49:56.501Z,8.25
2023-03-25T00:52:23.286Z,8.50
2023-03-25T00:54:50.135Z,8.29
2023-03-25T00:57:17.699Z,7.94
2023-03-25T00:59:44.482Z,7.95
2023-03-25T01:02:11.697Z,8.14
2023-03-25T01:04:41.584Z,8.26
2023-03-25T01:07:09.782Z,8.12
2023-03-25T01:09:36.896Z,7.80
2023-03-25T01:12:03.721Z,7.95
2023-03-25T01:14:30.513Z,8.06
2023-03-25T01:16:59.196Z,8.20
2023-03-25T01:19:26.560Z,8.24
2023-03-25T01:21:53.275Z,7.84
2023-03-25T01:24:20.090Z,8.20
2023-03-25T01:26:49.788Z,7.56
2023-03-25T01:29:19.002Z,7.52
2023-03-25T01:31:45.956Z,7.90
2023-03-25T01:34:13.546Z,7.71
2023-03-25T01:36:40.718Z,7.64
2023-03-25T01:39:08.981Z,7.66
2023-03-25T01:41:49.017Z,7.82
2023-03-25T01:44:19.780Z,7.81
2023-03-25T01:46:54.000Z,7.72
2023-03-25T01:49:25.243Z,7.61
2023-03-25T01:51:56.950Z,7.75
2023-03-25T01:54:24.903Z,7.66
2023-03-25T01:56:56.200Z,7.54
2023-03-25T01:59:30.056Z,7.62
2023-03-25T02:02:02.444Z,7.34
2023-03-25T02:04:40.592Z,7.43
2023-03-25T02:07:09.202Z,7.58
2023-03-25T02:09:37.344Z,7.72
2023-03-25T02:12:04.220Z,7.62
2023-03-25T02:14:34.604Z,7.65
2023-03-25T02:17:32.314Z,7.63
2023-03-25T02:20:24.398Z,7.56
2023-03-25T02:23:05.388Z,7.47
2023-03-25T02:25:39.828Z,7.48
2023-03-25T02:28:18.115Z,7.25
2023-03-25T02:31:06.750Z,7.48
2023-03-25T02:34:11.263Z,7.45
2023-03-25T02:36:57.294Z,7.03
2023-03-25T02:39:53.586Z,7.26
2023-03-25T02:42:34.596Z,7.02
2023-03-25T02:45:14.557Z,7.00
2023-03-25T02:47:47.663Z,7.09
2023-03-25T02:50:21.355Z,7.26
2023-03-25T02:52:53.014Z,7.40
2023-03-25T02:55:23.174Z,7.35
2023-03-25T02:57:53.314Z,7.03
2023-03-25T03:00:24.551Z,7.33
2023-03-25T03:02:59.673Z,7.38
2023-03-25T03:05:28.675Z,7.02
2023-03-25T03:08:04.493Z,7.41
2023-03-25T03:10:49.131Z,7.48
2023-03-25T03:13:24.855Z,7.49
2023-03-25T03:16:00.855Z,7.35
2023-03-25T03:18:44.903Z,7.25
2023-03-25T03:21:44.642Z,7.40
2023-03-25T03:24:23.593Z,7.44
2023-03-25T03:26:58.184Z,7.36
2023-03-25T03:29:36.858Z,7.41
2023-03-25T03:32:13.751Z,7.38
2023-03-25T03:34:47.230Z,7.35
2023-03-25T03:37:18.715Z,7.25
2023-03-25T03:39:47.672Z,7.11
2023-03-25T03:42:46.593Z,7.26
2023-03-25T03:45:22.841Z,7.31
2023-03-25T03:47:54.524Z,7.17
2023-03-25T03:50:31.650Z,7.32
2023-03-25T03:53:12.818Z,7.25
2023-03-25T03:55:43.752Z,7.30
2023-03-25T03:58:22.387Z,7.07
2023-03-25T04:00:57.713Z,7.23
2023-03-25T04:03:35.150Z,6.97
2023-03-25T04:06:13.350Z,7.33
2023-03-25T04:09:05.689Z,7.19
2023-03-25T04:11:47.238Z,7.21
2023-03-25T04:14:14.562Z,7.06
2023-03-25T04:16:45.731Z,7.04
2023-03-25T04:19:18.720Z,7.34
2023-03-25T04:21:48.050Z,6.82
2023-03-25T04:24:17.049Z,7.28
2023-03-25T04:26:44.123Z,7.08
2023-03-25T04:29:10.862Z,6.95
2023-03-25T04:31:37.874Z,7.13
2023-03-25T04:34:04.760Z,6.75
2023-03-25T04:36:38.072Z,6.95
2023-03-25T04:39:05.205Z,7.15
2023-03-25T04:41:33.773Z,7.66
2023-03-25T04:44:00.584Z,7.28
2023-03-25T04:46:27.430Z,7.48
2023-03-25T04:48:57.217Z,7.38
2023-03-25T04:51:23.946Z,7.34
2023-03-25T04:53:50.741Z,7.51
2023-03-25T04:56:18.749Z,7.50
2023-03-25T04:58:46.087Z,7.34
2023-03-25T05:01:33.078Z,7.57
2023-03-25T05:04:07.769Z,7.35
2023-03-25T05:06:38.444Z,7.16
2023-03-25T05:09:06.683Z,6.93
2023-03-25T05:11:37.020Z,7.11
2023-03-25T05:14:04.027Z,7.22
2023-03-25T05:16:30.774Z,6.76
2023-03-25T05:18:57.531Z,7.25
2023-03-25T05:21:24.277Z,7.37
2023-03-25T05:23:52.764Z,7.37
2023-03-25T05:26:20.858Z,7.20
2023-03-25T05:28:51.603Z,7.12
2023-03-25T05:31:18.767Z,6.98
2023-03-25T05:33:45.539Z,6.84
2023-03-25T05:36:18.716Z,6.95
2023-03-25T05:38:45.294Z,6.84
2023-03-25T05:41:16.713Z,7.06
2023-03-25T05:43:48.299Z,7.18
2023-03-25T05:46:15.516Z,6.82
2023-03-25T05:48:43.010Z,6.88
2023-03-25T05:51:16.608Z,6.59
2023-03-25T05:53:45.153Z,6.56
2023-03-25T05:56:12.188Z,6.84
2023-03-25T05:58:39.452Z,6.73
2023-03-25T06:01:09.234Z,7.00
2023-03-25T06:03:39.172Z,6.99
2023-03-25T06:06:13.955Z,6.30
2023-03-25T06:08:47.546Z,6.65
2023-03-25T06:11:16.967Z,6.49
2023-03-25T06:13:49.959Z,6.60
2023-03-25T06:16:19.403Z,6.54
2023-03-25T06:18:50.740Z,6.50
2023-03-25T06:21:19.889Z,6.82
2023-03-25T06:23:50.325Z,7.00
2023-03-25T06:26:18.437Z,6.49
2023-03-25T06:28:46.202Z,6.31
2023-03-25T06:31:17.956Z,6.11
2023-03-25T06:33:45.832Z,6.13
2023-03-25T06:36:15.649Z,6.35
2023-03-25T06:38:42.413Z,6.50
2023-03-25T06:41:09.106Z,6.52
2023-03-25T06:43:35.820Z,6.27
2023-03-25T06:46:02.613Z,6.73
2023-03-25T06:48:29.791Z,6.38
2023-03-25T06:50:57.381Z,6.80
2023-03-25T06:53:24.207Z,6.72
2023-03-25T06:55:51.089Z,6.63
2023-03-25T06:58:18.016Z,6.49
2023-03-25T07:00:46.019Z,6.36
2023-03-25T07:03:12.723Z,6.65
2023-03-25T07:05:41.872Z,6.25
2023-03-25T07:08:08.885Z,6.38
2023-03-25T07:10:35.563Z,5.84
2023-03-25T07:13:03.312Z,6.05
2023-03-25T07:15:30.081Z,6.10
2023-03-25T07:17:56.789Z,5.90
2023-03-25T07:20:23.811Z,6.03
2023-03-25T07:22:50.632Z,6.17
2023-03-25T07:25:17.467Z,5.78
2023-03-25T07:27:44.183Z,6.32
2023-03-25T07:30:11.178Z,6.36
2023-03-25T07:32:37.977Z,6.19
2023-03-25T07:35:05.901Z,6.34
2023-03-25T07:37:32.656Z,6.31
2023-03-25T07:39:59.378Z,6.49
2023-03-25T07:42:26.184Z,6.45
2023-03-25T07:44:52.925Z,6.70
2023-03-25T07:47:19.672Z,6.38
2023-03-25T07:49:47.874Z,6.29
2023-03-25T07:52:14.624Z,6.58
2023-03-25T07:54:41.354Z,6.78
2023-03-25T07:57:08.161Z,6.78
2023-03-25T07:59:35.108Z,6.91
2023-03-25T08:02:01.950Z,7.06
2023-03-25T08:04:28.988Z,6.88
2023-03-25T08:06:55.692Z,6.58
2023-03-25T08:09:23.134Z,6.81
2023-03-25T08:11:51.522Z,6.67
2023-03-25T08:14:18.576Z,6.69
2023-03-25T08:16:45.435Z,6.85
2023-03-25T08:19:12.252Z,6.92
2023-03-25T08:21:38.975Z,6.80
2023-03-25T08:24:05.874Z,6.90
2023-03-25T08:26:34.383Z,7.11
2023-03-25T08:29:02.924Z,7.48
2023-03-25T08:31:32.429Z,7.51
2023-03-25T08:34:00.697Z,7.15
2023-03-25T08:36:27.940Z,7.74
2023-03-25T08:38:55.391Z,7.69
2023-03-25T08:41:22.131Z,7.70
2023-03-25T08:43:49.370Z,7.23
2023-03-25T08:46:16.700Z,7.30
2023-03-25T08:48:44.320Z,7.73
2023-03-25T08:51:11.028Z,7.43
2023-03-25T08:53:37.756Z,7.65
2023-03-25T08:56:04.854Z,7.27
2023-03-25T08:58:31.572Z,7.14
2023-03-25T09:00:58.606Z,7.53
2023-03-25T09:03:27.217Z,7.34
2023-03-25T09:05:54.843Z,7.24
2023-03-25T09:08:22.424Z,7.22
2023-03-25T09:10:49.306Z,7.20
2023-03-25T09:13:16.226Z,7.12
2023-03-25T09:15:43.025Z,7.02
2023-03-25T09:18:10.416Z,7.06
2023-03-25T09:20:37.125Z,7.49
2023-03-25T09:23:04.298Z,7.46
2023-03-25T09:25:31.140Z,7.27
2023-03-25T09:27:57.834Z,6.96
2023-03-25T09:30:24.704Z,7.19
2023-03-25T09:32:51.534Z,7.33
2023-03-25T09:35:18.451Z,7.32
2023-03-25T09:37:45.867Z,7.47
2023-03-25T09:40:21.140Z,7.49
2023-03-25T09:43:01.899Z,7.20
2023-03-25T09:45:36.372Z,6.95
2023-03-25T09:48:06.230Z,7.10
2023-03-25T09:50:35.632Z,7.26
2023-03-25T09:53:23.571Z,7.11
2023-03-25T09:55:52.151Z,7.23
2023-03-25T09:58:22.170Z,7.22
2023-03-25T10:01:00.487Z,7.31
2023-03-25T10:03:38.452Z,7.51
2023-03-25T10:06:20.441Z,7.54
2023-03-25T10:08:57.061Z,7.60
2023-03-25T10:11:37.004Z,7.34
2023-03-25T10:14:27.302Z,7.19
2023-03-25T10:17:18.954Z,7.59
2023-03-25T10:19:59.541Z,7.55
2023-03-25T10:22:41.861Z,7.20
2023-03-25T10:25:22.819Z,7.40
2023-03-25T10:27:53.159Z,7.76
2023-03-25T10:30:27.750Z,7.60
2023-03-25T10:33:00.723Z,7.53
2023-03-25T10:35:36.064Z,7.47
2023-03-25T10:38:21.002Z,7.86
2023-03-25T10:40:53.505Z,7.63
2023-03-25T10:43:28.513Z,8.17
2023-03-25T10:46:01.660Z,7.83
2023-03-25T10:48:30.061Z,8.03
2023-03-25T10:51:07.145Z,7.81
2023-03-25T10:53:34.503Z,7.92
2023-03-25T10:56:16.121Z,7.80
2023-03-25T10:58:45.909Z,7.95
2023-03-25T11:01:19.375Z,8.33
2023-03-25T11:03:51.742Z,8.24
2023-03-25T11:06:29.731Z,8.36
2023-03-25T11:09:17.159Z,8.96
2023-03-25T11:11:44.668Z,8.97
2023-03-25T11:14:12.167Z,9.18
2023-03-25T11:16:52.660Z,9.23
2023-03-25T11:19:25.710Z,9.19
2023-03-25T11:22:00.987Z,9.36
2023-03-25T11:24:32.837Z,9.68
2023-03-25T11:27:01.012Z,9.28
2023-03-25T11:29:29.069Z,9.14
2023-03-25T11:32:16.056Z,9.11
2023-03-25T11:34:47.868Z,8.88
2023-03-25T11:37:20.476Z,9.17
2023-03-25T11:39:55.499Z,9.15
2023-03-25T11:42:38.332Z,8.81
2023-03-25T11:45:05.982Z,8.54
2023-03-25T11:47:36.744Z,8.81
2023-03-25T11:50:04.771Z,8.57
2023-03-25T11:52:47.001Z,8.48
2023-03-25T11:55:29.321Z,8.23
2023-03-25T11:57:58.939Z,8.09
2023-03-25T12:00:26.297Z,8.22
2023-03-25T12:03:11.922Z,8.23
2023-03-25T12:05:39.507Z,8.36
2023-03-25T12:08:18.918Z,8.38
2023-03-25T12:10:46.833Z,8.39
2023-03-25T12:13:32.262Z,8.17
2023-03-25T12:16:18.502Z,8.41
2023-03-25T12:19:13.041Z,8.31
2023-03-25T12:22:04.777Z,8.67
2023-03-25T12:24:40.879Z,8.80
2023-03-25T12:27:16.754Z,8.97
2023-03-25T12:30:02.902Z,8.94
2023-03-25T12:32:42.554Z,8.95
2023-03-25T12:35:38.759Z,9.30
2023-03-25T12:38:15.037Z,9.52
2023-03-25T12:41:12.642Z,9.84
2023-03-25T12:43:57.542Z,9.64
2023-03-25T12:46:53.793Z,9.47
2023-03-25T12:49:45.244Z,9.73
2023-03-25T12:52:20.884Z,9.56
2023-03-25T12:55:23.188Z,8.92
2023-03-25T12:58:13.109Z,9.41
2023-03-25T13:01:01.085Z,9.82
2023-03-25T13:03:36.844Z,9.71
2023-03-25T13:06:23.205Z,9.69
2023-03-25T13:08:58.885Z,9.58
2023-03-25T13:11:51.848Z,9.26
2023-03-25T13:14:27.952Z,9.33
2023-03-25T13:17:00.188Z,9.17
2023-03-25T13:19:29.448Z,9.45
2023-03-25T13:22:01.336Z,9.40
2023-03-25T13:24:27.968Z,9.45
2023-03-25T13:26:56.865Z,9.35
2023-03-25T13:29:48.469Z,9.31
2023-03-25T13:32:27.657Z,8.80
2023-03-25T13:35:19.382Z,9.47
2023-03-25T13:37:53.998Z,9.35
2023-03-25T13:40:50.572Z,9.32
2023-03-25T13:43:20.487Z,9.58
2023-03-25T13:46:06.058Z,9.53
2023-03-25T13:49:25.420Z,9.78
2023-03-25T13:51:52.172Z,9.83
2023-03-25T13:54:23.191Z,10.03
2023-03-25T13:57:10.197Z,9.81
2023-03-25T13:59:56.115Z,10.00
2023-03-25T14:02:42.087Z,9.67
2023-03-25T14:05:27.345Z,9.65
2023-03-25T14:08:25.996Z,9.75
2023-03-25T14:11:13.222Z,10.11
2023-03-25T14:13:45.211Z,10.23
2023-03-25T14:16:18.188Z,10.00
2023-03-25T14:18:59.708Z,10.14
2023-03-25T14:21:38.553Z,10.59
2023-03-25T14:24:18.971Z,10.26
2023-03-25T14:27:01.938Z,10.02
2023-03-25T14:29:55.872Z,9.64
2023-03-25T14:32:22.452Z,10.12
2023-03-25T14:34:50.074Z,10.24
2023-03-25T14:37:26.231Z,10.16
2023-03-25T14:39:56.661Z,10.11
2023-03-25T14:42:29.089Z,9.75
2023-03-25T14:45:32.283Z,9.98
2023-03-25T14:47:59.975Z,9.63
2023-03-25T14:50:27.859Z,10.16
2023-03-25T14:53:02.608Z,9.86
2023-03-25T14:55:33.126Z,10.16
2023-03-25T14:58:03.367Z,9.83
2023-03-25T15:00:34.590Z,9.93
2023-03-25T15:03:14.381Z,9.53
2023-03-25T15:05:42.650Z,9.86
2023-03-25T15:08:09.799Z,9.63
2023-03-25T15:10:40.902Z,9.28
2023-03-25T15:13:13.462Z,9.25
2023-03-25T15:15:46.326Z,9.37
2023-03-25T15:18:31.842Z,9.11
2023-03-25T15:21:10.932Z,8.96
2023-03-25T15:23:51.300Z,8.76
2023-03-25T15:26:40.392Z,8.92
2023-03-25T15:29:19.275Z,8.90
2023-03-25T15:32:02.877Z,8.46
2023-03-25T15:34:44.972Z,8.90
2023-03-25T15:37:45.173Z,8.96
2023-03-25T15:40:21.147Z,9.07
2023-03-25T15:42:57.157Z,8.98
2023-03-25T15:45:36.149Z,9.12
2023-03-25T15:48:18.117Z,8.91
2023-03-25T15:50:53.020Z,8.88
2023-03-25T15:53:58.728Z,8.91
2023-03-25T15:56:37.218Z,8.90
2023-03-25T15:59:18.710Z,8.75
2023-03-25T16:01:49.507Z,9.01
2023-03-25T16:04:21.613Z,8.67
2023-03-25T16:06:53.186Z,8.61
2023-03-25T16:09:29.273Z,8.98
2023-03-25T16:12:03.211Z,9.15
2023-03-25T16:14:32.686Z,8.73
2023-03-25T16:17:02.153Z,8.79
2023-03-25T16:19:48.232Z,8.78
2023-03-25T16:22:16.092Z,9.21
2023-03-25T16:24:43.726Z,8.73
2023-03-25T16:27:13.277Z,8.76
2023-03-25T16:29:40.153Z,8.55
2023-03-25T16:32:07.080Z,8.53
2023-03-25T16:34:41.008Z,8.50
2023-03-25T16:37:10.279Z,8.33
2023-03-25T16:39:38.078Z,8.54
2023-03-25T16:42:21.214Z,8.45
2023-03-25T16:44:48.224Z,8.30
2023-03-25T16:47:16.060Z,8.35
2023-03-25T16:49:47.922Z,8.34
2023-03-25T16:52:22.752Z,8.48
2023-03-25T16:54:52.552Z,8.86
2023-03-25T16:57:24.475Z,8.52
2023-03-25T16:59:53.199Z,8.52
2023-03-25T17:02:24.943Z,8.70
2023-03-25T17:04:55.908Z,8.67
2023-03-25T17:07:27.653Z,8.75
2023-03-25T17:10:00.843Z,8.38
2023-03-25T17:12:28.955Z,8.73
2023-03-25T17:15:04.527Z,8.71
2023-03-25T17:17:42.300Z,8.65
2023-03-25T17:20:19.973Z,8.60
2023-03-25T17:23:00.701Z,8.66
2023-03-25T17:25:53.978Z,8.17
2023-03-25T17:28:32.790Z,8.14
2023-03-25T17:31:00.240Z,8.05
2023-03-25T17:33:30.096Z,8.06
2023-03-25T17:35:57.585Z,7.83
2023-03-25T17:38:29.052Z,7.94
2023-03-25T17:41:01.406Z,7.74
2023-03-25T17:43:30.701Z,7.74
2023-03-25T17:45:58.198Z,7.91
2023-03-25T17:48:24.996Z,7.72
2023-03-25T17:50:53.760Z,7.90
2023-03-25T17:53:20.840Z,7.70
2023-03-25T17:55:48.469Z,7.94
2023-03-25T17:58:16.436Z,8.02
2023-03-25T18:00:44.093Z,7.80
2023-03-25T18:03:16.542Z,7.81
2023-03-25T18:05:43.677Z,7.66
2023-03-25T18:08:14.400Z,7.75
2023-03-25T18:10:42.155Z,7.69
2023-03-25T18:13:09.913Z,7.64
2023-03-25T18:15:39.450Z,7.39
2023-03-25T18:18:08.243Z,7.71
2023-03-25T18:20:37.653Z,7.38
2023-03-25T18:23:04.462Z,7.55
2023-03-25T18:25:34.189Z,7.46
2023-03-25T18:28:01.430Z,7.78
2023-03-25T18:30:31.936Z,7.70
2023-03-25T18:32:58.837Z,7.70
2023-03-25T18:35:25.780Z,7.23
2023-03-25T18:37:52.547Z,7.26
2023-03-25T18:40:24.229Z,7.53
2023-03-25T18:42:52.349Z,7.39
2023-03-25T18:45:21.224Z,7.22
2023-03-25T18:47:48.812Z,7.26
2023-03-25T18:50:32.781Z,7.40
2023-03-25T18:52:59.960Z,7.20
2023-03-25T18:55:29.015Z,7.10
2023-03-25T18:57:56.475Z,7.07
2023-03-25T19:00:35.002Z,7.06
2023-03-25T19:03:02.293Z,6.95
2023-03-25T19:05:29.188Z,6.90
2023-03-25T19:07:56.295Z,7.12
2023-03-25T19:10:29.528Z,6.91
2023-03-25T19:12:56.475Z,7.08
2023-03-25T19:15:27.837Z,7.00
2023-03-25T19:17:58.813Z,6.59
2023-03-25T19:20:29.700Z,6.73
2023-03-25T19:22:56.743Z,5.59
2023-03-25T19:25:23.899Z,6.00
2023-03-25T19:27:50.986Z,5.46
2023-03-25T19:30:20.431Z,6.73
2023-03-25T19:32:49.444Z,6.71
2023-03-25T19:35:18.300Z,6.17
2023-03-25T19:37:51.158Z,6.32
2023-03-25T19:40:24.212Z,6.82
2023-03-25T19:42:54.785Z,6.73
2023-03-25T19:45:22.344Z,6.55
2023-03-25T19:47:49.265Z,6.59
2023-03-25T19:50:22.577Z,6.32
2023-03-25T19:52:51.372Z,6.76
2023-03-25T19:55:19.197Z,6.54
2023-03-25T19:57:46.374Z,6.40
2023-03-25T20:00:16.714Z,6.43
2023-03-25T20:02:46.425Z,6.77
2023-03-25T20:05:14.761Z,6.18
2023-03-25T20:07:43.976Z,6.75
2023-03-25T20:10:19.558Z,6.73
2023-03-25T20:12:48.203Z,6.61
2023-03-25T20:15:16.417Z,6.79
2023-03-25T20:17:43.478Z,6.72
2023-03-25T20:20:12.614Z,6.87
2023-03-25T20:22:40.859Z,6.86
2023-03-25T20:25:09.147Z,6.71
2023-03-25T20:27:36.352Z,6.56
2023-03-25T20:30:07.678Z,6.75
2023-03-25T20:32:41.447Z,6.56
2023-03-25T20:35:12.725Z,6.26
2023-03-25T20:37:40.770Z,6.13
2023-03-25T20:40:12.061Z,6.63
2023-03-25T20:42:41.496Z,6.31
2023-03-25T20:45:11.150Z,5.85
2023-03-25T20:47:38.579Z,6.30
2023-03-25T20:50:07.319Z,6.49
2023-03-25T20:52:36.096Z,6.35
2023-03-25T20:55:03.291Z,6.50
2023-03-25T20:57:30.040Z,6.46
2023-03-25T20:59:58.133Z,6.53
2023-03-25T21:02:25.234Z,6.36
2023-03-25T21:04:55.402Z,6.17
2023-03-25T21:07:22.598Z,6.42
2023-03-25T21:09:50.028Z,6.39
2023-03-25T21:12:16.856Z,6.22
2023-03-25T21:14:43.950Z,5.98
2023-03-25T21:17:11.511Z,6.00
2023-03-25T21:19:38.308Z,6.03
2023-03-25T21:22:05.069Z,5.97
2023-03-25T21:24:34.457Z,6.35
2023-03-25T21:27:01.995Z,6.31
2023-03-25T21:29:29.136Z,6.30
2023-03-25T21:31:59.321Z,6.07
2023-03-25T21:34:26.367Z,6.04
2023-03-25T21:36:55.825Z,5.95
2023-03-25T21:39:22.670Z,5.92
2023-03-25T21:41:49.448Z,5.61
2023-03-25T21:44:16.674Z,6.21
2023-03-25T21:46:43.599Z,6.16
2023-03-25T21:49:11.843Z,6.33
2023-03-25T21:51:42.698Z,6.50
2023-03-25T21:54:10.104Z,6.50
2023-03-25T21:56:40.153Z,6.32
2023-03-25T21:59:07.021Z,6.63
2023-03-25T22:01:34.032Z,6.35
2023-03-25T22:04:03.157Z,6.58
2023-03-25T22:06:33.478Z,6.25
2023-03-25T22:09:05.235Z,6.32
2023-03-25T22:11:34.302Z,6.36
2023-03-25T22:14:01.679Z,6.35
2023-03-25T22:16:28.659Z,6.15
2023-03-25T22:18:55.496Z,6.30
2023-03-25T22:21:26.681Z,5.94
2023-03-25T22:23:55.693Z,6.11
2023-03-25T22:26:24.032Z,6.04
2023-03-25T22:28:55.927Z,5.83
2023-03-25T22:31:30.938Z,5.87
2023-03-25T22:34:11.224Z,5.97
2023-03-25T22:36:46.346Z,5.94
2023-03-25T22:39:13.173Z,5.54
2023-03-25T22:41:39.915Z,5.22
2023-03-25T22:44:06.976Z,5.48
2023-03-25T22:46:34.254Z,5.63
2023-03-25T22:49:01.314Z,5.56
2023-03-25T22:51:28.462Z,5.55
2023-03-25T22:53:55.543Z,5.33
2023-03-25T22:56:23.788Z,5.17
2023-03-25T22:58:54.086Z,4.78
2023-03-25T23:01:26.876Z,4.63
2023-03-25T23:03:54.915Z,4.99
2023-03-25T23:06:22.665Z,4.78
2023-03-25T23:08:49.992Z,4.81
2023-03-25T23:11:20.472Z,4.80
2023-03-25T23:13:50.920Z,4.66
2023-03-25T23:16:20.445Z,4.66
2023-03-25T23:18:48.019Z,4.89
2023-03-25T23:21:17.181Z,4.87
2023-03-25T23:23:52.860Z,4.41
2023-03-25T23:26:27.232Z,4.65
2023-03-25T23:28:57.204Z,4.75
2023-03-25T23:31:28.395Z,4.70
2023-03-25T23:33:57.865Z,4.28
2023-03-25T23:36:26.316Z,4.72
2023-03-25T23:38:53.860Z,4.01
2023-03-25T23:41:23.056Z,4.52
2023-03-25T23:43:56.065Z,4.43
2023-03-25T23:46:24.991Z,4.44
2023-03-25T23:48:55.024Z,3.99
2023-03-25T23:51:24.424Z,4.28
2023-03-25T23:53:52.779Z,4.26
2023-03-25T23:56:22.898Z,4.09
2023-03-25T23:58:53.835Z,3.15
